sensor_id;sensor_type;location;lat;lon;timestamp;pressure;altitude;pressure_sealevel;temperature;humidity
70127;BME280;57491;42.694;23.314;2023-02-28T00:02:06;95580.00;;;8.67;76.41
70127;BME280;57491;42.694;23.314;2023-02-28T00:04:33;95580.88;;;8.84;76.21
70127;BME280;57491;42.694;23.314;2023-02-28T00:07:00;95587.44;;;9.04;76.39
70127;BME280;57491;42.694;23.314;2023-02-28T00:09:27;95581.13;;;9.15;75.16
70127;BME280;57491;42.694;23.314;2023-02-28T00:11:54;95598.34;;;9.24;75.63
70127;BME280;57491;42.694;23.314;2023-02-28T00:14:21;95587.53;;;9.36;75.61
70127;BME280;57491;42.694;23.314;2023-02-28T00:16:48;95589.66;;;9.41;75.77
70127;BME280;57491;42.694;23.314;2023-02-28T00:19:16;95602.31;;;9.44;73.76
70127;BME280;57491;42.694;23.314;2023-02-28T00:21:43;95604.25;;;9.50;72.93
70127;BME280;57491;42.694;23.314;2023-02-28T00:24:10;95607.72;;;9.59;73.03
70127;BME280;57491;42.694;23.314;2023-02-28T00:26:37;95608.69;;;9.66;72.62
70127;BME280;57491;42.694;23.314;2023-02-28T00:29:04;95610.66;;;9.72;71.83
70127;BME280;57491;42.694;23.314;2023-02-28T00:31:32;95610.25;;;9.51;72.94
70127;BME280;57491;42.694;23.314;2023-02-28T00:33:59;95608.00;;;9.64;73.30
70127;BME280;57491;42.694;23.314;2023-02-28T00:36:27;95605.78;;;9.77;73.76
70127;BME280;57491;42.694;23.314;2023-02-28T00:38:54;95608.53;;;9.83;73.51
70127;BME280;57491;42.694;23.314;2023-02-28T00:41:21;95603.34;;;9.92;73.65
70127;BME280;57491;42.694;23.314;2023-02-28T00:43:48;95618.78;;;9.93;73.05
70127;BME280;57491;42.694;23.314;2023-02-28T00:46:15;95602.56;;;9.99;73.75
70127;BME280;57491;42.694;23.314;2023-02-28T00:48:42;95597.50;;;9.90;73.10
70127;BME280;57491;42.694;23.314;2023-02-28T00:51:09;95598.63;;;9.87;72.61
70127;BME280;57491;42.694;23.314;2023-02-28T00:53:38;95597.19;;;9.84;74.27
70127;BME280;57491;42.694;23.314;2023-02-28T00:56:05;95586.78;;;9.76;73.32
70127;BME280;57491;42.694;23.314;2023-02-28T00:58:32;95591.47;;;9.65;72.95
70127;BME280;57491;42.694;23.314;2023-02-28T01:00:59;95602.19;;;9.62;72.02
70127;BME280;57491;42.694;23.314;2023-02-28T01:03:26;95591.66;;;9.63;73.11
70127;BME280;57491;42.694;23.314;2023-02-28T01:05:54;95606.06;;;9.50;72.49
70127;BME280;57491;42.694;23.314;2023-02-28T01:08:21;95596.63;;;9.40;72.81
70127;BME280;57491;42.694;23.314;2023-02-28T01:10:50;95599.38;;;9.47;72.66
70127;BME280;57491;42.694;23.314;2023-02-28T01:13:17;95600.53;;;9.36;72.51
70127;BME280;57491;42.694;23.314;2023-02-28T01:15:49;95590.28;;;9.35;72.14
70127;BME280;57491;42.694;23.314;2023-02-28T01:18:18;95594.00;;;9.32;71.83
70127;BME280;57491;42.694;23.314;2023-02-28T01:20:44;95589.13;;;9.29;73.24
70127;BME280;57491;42.694;23.314;2023-02-28T01:23:12;95593.34;;;9.22;72.82
70127;BME280;57491;42.694;23.314;2023-02-28T01:25:39;95593.03;;;9.33;73.59
70127;BME280;57491;42.694;23.314;2023-02-28T01:28:07;95595.47;;;9.27;72.67
70127;BME280;57491;42.694;23.314;2023-02-28T01:30:35;95596.91;;;9.29;73.52
70127;BME280;57491;42.694;23.314;2023-02-28T01:33:02;95595.28;;;9.20;72.79
70127;BME280;57491;42.694;23.314;2023-02-28T01:35:32;95590.28;;;9.27;73.61
70127;BME280;57491;42.694;23.314;2023-02-28T01:37:59;95578.44;;;9.32;73.82
70127;BME280;57491;42.694;23.314;2023-02-28T01:40:26;95593.84;;;9.26;72.58
70127;BME280;57491;42.694;23.314;2023-02-28T01:42:53;95591.41;;;9.32;73.16
70127;BME280;57491;42.694;23.314;2023-02-28T01:45:26;95596.09;;;9.21;72.39
70127;BME280;57491;42.694;23.314;2023-02-28T01:47:57;95590.56;;;9.24;74.15
70127;BME280;57491;42.694;23.314;2023-02-28T01:50:28;95599.59;;;9.04;72.87
70127;BME280;57491;42.694;23.314;2023-02-28T01:52:59;95583.84;;;9.05;73.67
70127;BME280;57491;42.694;23.314;2023-02-28T01:55:28;95598.81;;;9.11;72.74
70127;BME280;57491;42.694;23.314;2023-02-28T01:57:58;95591.34;;;9.08;73.36
70127;BME280;57491;42.694;23.314;2023-02-28T02:00:29;95604.13;;;9.10;73.64
70127;BME280;57491;42.694;23.314;2023-02-28T02:02:58;95602.44;;;8.92;72.30
70127;BME280;57491;42.694;23.314;2023-02-28T02:05:28;95605.53;;;8.96;72.70
70127;BME280;57491;42.694;23.314;2023-02-28T02:08:00;95599.25;;;8.99;72.65
70127;BME280;57491;42.694;23.314;2023-02-28T02:10:31;95603.31;;;9.01;72.20
70127;BME280;57491;42.694;23.314;2023-02-28T02:13:13;95582.56;;;9.01;75.52
70127;BME280;57491;42.694;23.314;2023-02-28T02:15:44;95599.41;;;8.97;72.07
70127;BME280;57491;42.694;23.314;2023-02-28T02:18:21;95590.94;;;8.87;72.51
70127;BME280;57491;42.694;23.314;2023-02-28T02:21:23;95583.50;;;8.92;73.65
70127;BME280;57491;42.694;23.314;2023-02-28T02:24:16;95574.22;;;8.81;72.43
70127;BME280;57491;42.694;23.314;2023-02-28T02:30:28;95581.44;;;8.70;73.07
70127;BME280;57491;42.694;23.314;2023-02-28T02:33:34;95594.25;;;8.71;74.11
70127;BME280;57491;42.694;23.314;2023-02-28T02:36:13;95600.25;;;8.72;73.33
70127;BME280;57491;42.694;23.314;2023-02-28T02:38:48;95600.72;;;8.67;73.49
70127;BME280;57491;42.694;23.314;2023-02-28T02:41:19;95591.13;;;8.60;73.17
70127;BME280;57491;42.694;23.314;2023-02-28T02:43:52;95603.44;;;8.58;73.46
70127;BME280;57491;42.694;23.314;2023-02-28T02:46:25;95609.56;;;8.57;74.65
70127;BME280;57491;42.694;23.314;2023-02-28T02:48:55;95613.09;;;8.73;76.55
70127;BME280;57491;42.694;23.314;2023-02-28T02:51:26;95614.91;;;8.81;75.00
70127;BME280;57491;42.694;23.314;2023-02-28T02:53:57;95610.66;;;8.80;74.00
70127;BME280;57491;42.694;23.314;2023-02-28T02:56:28;95601.31;;;8.87;75.13
70127;BME280;57491;42.694;23.314;2023-02-28T02:59:01;95607.75;;;8.83;75.07
70127;BME280;57491;42.694;23.314;2023-02-28T03:01:31;95615.72;;;8.81;74.34
70127;BME280;57491;42.694;23.314;2023-02-28T03:04:01;95611.00;;;8.77;74.15
70127;BME280;57491;42.694;23.314;2023-02-28T03:06:31;95615.00;;;8.71;73.76
70127;BME280;57491;42.694;23.314;2023-02-28T03:08:59;95618.91;;;8.75;75.04
70127;BME280;57491;42.694;23.314;2023-02-28T03:11:27;95626.38;;;8.78;75.93
70127;BME280;57491;42.694;23.314;2023-02-28T03:14:11;95639.84;;;8.82;75.55
70127;BME280;57491;42.694;23.314;2023-02-28T03:16:55;95637.72;;;8.77;74.91
70127;BME280;57491;42.694;23.314;2023-02-28T03:19:41;95636.25;;;8.75;76.25
70127;BME280;57491;42.694;23.314;2023-02-28T03:22:36;95645.66;;;8.76;75.55
70127;BME280;57491;42.694;23.314;2023-02-28T03:25:07;95654.38;;;8.75;76.19
70127;BME280;57491;42.694;23.314;2023-02-28T03:27:40;95641.19;;;8.86;75.87
70127;BME280;57491;42.694;23.314;2023-02-28T03:30:10;95645.44;;;8.95;75.59
70127;BME280;57491;42.694;23.314;2023-02-28T03:32:47;95653.56;;;9.00;73.95
70127;BME280;57491;42.694;23.314;2023-02-28T03:35:21;95662.34;;;9.07;73.99
70127;BME280;57491;42.694;23.314;2023-02-28T03:37:53;95658.78;;;9.08;73.28
70127;BME280;57491;42.694;23.314;2023-02-28T03:40:25;95661.69;;;8.79;73.74
70127;BME280;57491;42.694;23.314;2023-02-28T03:42:58;95661.13;;;8.60;74.57
70127;BME280;57491;42.694;23.314;2023-02-28T03:45:28;95662.25;;;8.65;74.33
70127;BME280;57491;42.694;23.314;2023-02-28T03:48:00;95651.63;;;8.68;74.15
70127;BME280;57491;42.694;23.314;2023-02-28T03:50:34;95667.44;;;8.65;74.78
70127;BME280;57491;42.694;23.314;2023-02-28T03:53:08;95666.59;;;8.57;74.25
70127;BME280;57491;42.694;23.314;2023-02-28T03:55:39;95677.22;;;8.45;74.15
70127;BME280;57491;42.694;23.314;2023-02-28T03:58:12;95668.56;;;8.37;74.88
70127;BME280;57491;42.694;23.314;2023-02-28T04:00:46;95669.56;;;8.26;75.89
70127;BME280;57491;42.694;23.314;2023-02-28T04:03:14;95670.72;;;8.41;75.38
70127;BME280;57491;42.694;23.314;2023-02-28T04:05:50;95667.84;;;8.52;74.77
70127;BME280;57491;42.694;23.314;2023-02-28T04:08:19;95663.84;;;8.58;74.25
70127;BME280;57491;42.694;23.314;2023-02-28T04:10:51;95667.63;;;8.64;74.27
70127;BME280;57491;42.694;23.314;2023-02-28T04:13:21;95660.59;;;8.82;75.17
70127;BME280;57491;42.694;23.314;2023-02-28T04:15:48;95672.94;;;8.88;74.49
70127;BME280;57491;42.694;23.314;2023-02-28T04:18:15;95662.09;;;8.92;74.11
70127;BME280;57491;42.694;23.314;2023-02-28T04:20:42;95659.25;;;9.04;74.28
70127;BME280;57491;42.694;23.314;2023-02-28T04:23:09;95659.53;;;9.01;74.63
70127;BME280;57491;42.694;23.314;2023-02-28T04:25:38;95665.25;;;9.04;72.97
70127;BME280;57491;42.694;23.314;2023-02-28T04:28:06;95671.75;;;9.08;73.55
70127;BME280;57491;42.694;23.314;2023-02-28T04:30:33;95655.84;;;9.03;73.11
70127;BME280;57491;42.694;23.314;2023-02-28T04:33:00;95666.91;;;9.13;73.57
70127;BME280;57491;42.694;23.314;2023-02-28T04:35:27;95667.22;;;9.10;72.55
70127;BME280;57491;42.694;23.314;2023-02-28T04:37:54;95667.22;;;9.10;72.91
70127;BME280;57491;42.694;23.314;2023-02-28T04:40:21;95670.78;;;9.09;74.04
70127;BME280;57491;42.694;23.314;2023-02-28T04:42:49;95669.97;;;9.09;73.17
70127;BME280;57491;42.694;23.314;2023-02-28T04:45:16;95674.63;;;9.05;72.61
70127;BME280;57491;42.694;23.314;2023-02-28T04:47:44;95671.09;;;9.06;73.97
70127;BME280;57491;42.694;23.314;2023-02-28T04:50:11;95685.00;;;9.05;72.99
70127;BME280;57491;42.694;23.314;2023-02-28T04:52:38;95694.72;;;8.95;71.68
70127;BME280;57491;42.694;23.314;2023-02-28T04:55:06;95688.19;;;8.91;72.82
70127;BME280;57491;42.694;23.314;2023-02-28T04:57:33;95693.28;;;8.75;74.01
70127;BME280;57491;42.694;23.314;2023-02-28T05:00:01;95697.81;;;8.73;73.19
70127;BME280;57491;42.694;23.314;2023-02-28T05:02:34;95697.44;;;8.68;73.78
70127;BME280;57491;42.694;23.314;2023-02-28T05:05:01;95688.72;;;8.69;72.71
70127;BME280;57491;42.694;23.314;2023-02-28T05:07:28;95686.44;;;8.74;72.90
70127;BME280;57491;42.694;23.314;2023-02-28T05:09:55;95696.22;;;8.80;72.40
70127;BME280;57491;42.694;23.314;2023-02-28T05:12:22;95691.19;;;8.78;72.95
70127;BME280;57491;42.694;23.314;2023-02-28T05:14:49;95691.84;;;8.80;74.88
70127;BME280;57491;42.694;23.314;2023-02-28T05:17:17;95696.09;;;8.81;74.27
70127;BME280;57491;42.694;23.314;2023-02-28T05:19:44;95695.78;;;8.84;73.13
70127;BME280;57491;42.694;23.314;2023-02-28T05:22:15;95693.41;;;8.91;74.02
70127;BME280;57491;42.694;23.314;2023-02-28T05:24:42;95701.50;;;8.96;73.38
70127;BME280;57491;42.694;23.314;2023-02-28T05:27:10;95708.81;;;9.01;73.45
70127;BME280;57491;42.694;23.314;2023-02-28T05:29:37;95717.78;;;9.06;73.35
70127;BME280;57491;42.694;23.314;2023-02-28T05:32:09;95716.09;;;8.97;72.92
70127;BME280;57491;42.694;23.314;2023-02-28T05:34:38;95713.88;;;9.02;73.74
70127;BME280;57491;42.694;23.314;2023-02-28T05:37:05;95721.28;;;8.97;73.30
70127;BME280;57491;42.694;23.314;2023-02-28T05:39:33;95723.88;;;8.97;73.07
70127;BME280;57491;42.694;23.314;2023-02-28T05:42:00;95726.78;;;8.94;72.71
70127;BME280;57491;42.694;23.314;2023-02-28T05:44:27;95723.22;;;8.95;72.95
70127;BME280;57491;42.694;23.314;2023-02-28T05:46:54;95729.56;;;9.01;72.80
70127;BME280;57491;42.694;23.314;2023-02-28T05:49:21;95728.50;;;9.11;73.95
70127;BME280;57491;42.694;23.314;2023-02-28T05:51:50;95724.63;;;9.15;72.53
70127;BME280;57491;42.694;23.314;2023-02-28T05:54:17;95729.53;;;9.18;73.21
70127;BME280;57491;42.694;23.314;2023-02-28T05:56:44;95735.97;;;9.14;72.43
70127;BME280;57491;42.694;23.314;2023-02-28T05:59:11;95742.78;;;9.15;72.42
70127;BME280;57491;42.694;23.314;2023-02-28T06:01:40;95735.38;;;9.20;73.24
70127;BME280;57491;42.694;23.314;2023-02-28T06:04:09;95730.19;;;9.20;73.12
70127;BME280;57491;42.694;23.314;2023-02-28T06:06:37;95734.25;;;9.23;72.91
70127;BME280;57491;42.694;23.314;2023-02-28T06:09:06;95734.13;;;9.32;72.60
70127;BME280;57491;42.694;23.314;2023-02-28T06:11:33;95731.38;;;9.34;71.19
70127;BME280;57491;42.694;23.314;2023-02-28T06:14:01;95727.44;;;9.22;71.46
70127;BME280;57491;42.694;23.314;2023-02-28T06:16:29;95729.91;;;9.31;71.64
70127;BME280;57491;42.694;23.314;2023-02-28T06:18:57;95733.38;;;9.40;72.07
70127;BME280;57491;42.694;23.314;2023-02-28T06:21:26;95728.84;;;9.50;72.20
70127;BME280;57491;42.694;23.314;2023-02-28T06:23:54;95729.75;;;9.67;71.47
70127;BME280;57491;42.694;23.314;2023-02-28T06:26:23;95727.16;;;9.75;71.30
70127;BME280;57491;42.694;23.314;2023-02-28T06:28:50;95728.81;;;9.84;70.54
70127;BME280;57491;42.694;23.314;2023-02-28T06:31:18;95735.31;;;9.88;69.92
70127;BME280;57491;42.694;23.314;2023-02-28T06:33:46;95744.66;;;9.73;69.79
70127;BME280;57491;42.694;23.314;2023-02-28T06:36:14;95746.97;;;9.76;69.25
70127;BME280;57491;42.694;23.314;2023-02-28T06:38:42;95752.34;;;9.82;70.00
70127;BME280;57491;42.694;23.314;2023-02-28T06:41:09;95756.09;;;9.88;69.57
70127;BME280;57491;42.694;23.314;2023-02-28T06:43:40;95749.59;;;9.84;69.93
70127;BME280;57491;42.694;23.314;2023-02-28T06:46:11;95758.66;;;9.80;70.21
70127;BME280;57491;42.694;23.314;2023-02-28T06:48:39;95754.59;;;9.77;68.07
70127;BME280;57491;42.694;23.314;2023-02-28T06:51:07;95752.34;;;9.82;68.79
70127;BME280;57491;42.694;23.314;2023-02-28T06:53:35;95757.06;;;9.95;69.25
70127;BME280;57491;42.694;23.314;2023-02-28T06:56:04;95756.59;;;10.00;69.22
70127;BME280;57491;42.694;23.314;2023-02-28T06:58:33;95762.59;;;9.92;69.12
70127;BME280;57491;42.694;23.314;2023-02-28T07:01:02;95750.78;;;9.98;68.82
70127;BME280;57491;42.694;23.314;2023-02-28T07:03:29;95757.59;;;9.99;68.18
70127;BME280;57491;42.694;23.314;2023-02-28T07:05:56;95769.22;;;9.86;68.82
70127;BME280;57491;42.694;23.314;2023-02-28T07:08:23;95757.88;;;9.88;70.48
70127;BME280;57491;42.694;23.314;2023-02-28T07:10:52;95754.13;;;9.82;68.90
70127;BME280;57491;42.694;23.314;2023-02-28T07:13:19;95758.38;;;9.91;69.37
70127;BME280;57491;42.694;23.314;2023-02-28T07:15:53;95757.06;;;9.95;68.46
70127;BME280;57491;42.694;23.314;2023-02-28T07:18:22;95754.63;;;9.85;68.39
70127;BME280;57491;42.694;23.314;2023-02-28T07:20:49;95753.13;;;9.75;69.41
70127;BME280;57491;42.694;23.314;2023-02-28T07:23:17;95766.13;;;9.83;69.18
70127;BME280;57491;42.694;23.314;2023-02-28T07:25:45;95753.09;;;9.67;69.08
70127;BME280;57491;42.694;23.314;2023-02-28T07:28:12;95759.97;;;9.84;70.34
70127;BME280;57491;42.694;23.314;2023-02-28T07:30:40;95765.84;;;9.86;69.46
70127;BME280;57491;42.694;23.314;2023-02-28T07:33:08;95761.63;;;9.85;69.12
70127;BME280;57491;42.694;23.314;2023-02-28T07:35:36;95748.97;;;9.98;69.69
70127;BME280;57491;42.694;23.314;2023-02-28T07:38:04;95747.19;;;9.99;69.30
70127;BME280;57491;42.694;23.314;2023-02-28T07:40:33;95756.00;;;10.14;68.83
70127;BME280;57491;42.694;23.314;2023-02-28T07:43:00;95758.81;;;10.28;68.65
70127;BME280;57491;42.694;23.314;2023-02-28T07:45:28;95755.59;;;10.26;68.29
70127;BME280;57491;42.694;23.314;2023-02-28T07:47:55;95760.13;;;10.33;67.95
70127;BME280;57491;42.694;23.314;2023-02-28T07:50:22;95759.47;;;10.39;67.86
70127;BME280;57491;42.694;23.314;2023-02-28T07:52:51;95753.13;;;10.41;68.21
70127;BME280;57491;42.694;23.314;2023-02-28T07:55:18;95753.31;;;10.48;68.45
70127;BME280;57491;42.694;23.314;2023-02-28T07:57:45;95747.47;;;10.46;67.70
70127;BME280;57491;42.694;23.314;2023-02-28T08:00:13;95752.34;;;10.57;66.97
70127;BME280;57491;42.694;23.314;2023-02-28T08:02:40;95748.78;;;10.74;67.13
70127;BME280;57491;42.694;23.314;2023-02-28T08:05:07;95742.91;;;10.64;66.56
70127;BME280;57491;42.694;23.314;2023-02-28T08:07:35;95746.97;;;10.58;66.90
70127;BME280;57491;42.694;23.314;2023-02-28T08:10:03;95753.63;;;10.45;67.05
70127;BME280;57491;42.694;23.314;2023-02-28T08:12:32;95754.91;;;10.41;68.49
70127;BME280;57491;42.694;23.314;2023-02-28T08:14:59;95751.84;;;10.69;68.35
70127;BME280;57491;42.694;23.314;2023-02-28T08:17:26;95752.34;;;10.89;67.26
70127;BME280;57491;42.694;23.314;2023-02-28T08:19:53;95756.06;;;11.11;66.55
70127;BME280;57491;42.694;23.314;2023-02-28T08:22:20;95758.81;;;11.26;65.13
70127;BME280;57491;42.694;23.314;2023-02-28T08:24:47;95759.25;;;11.37;65.38
70127;BME280;57491;42.694;23.314;2023-02-28T08:27:16;95754.81;;;11.46;64.94
70127;BME280;57491;42.694;23.314;2023-02-28T08:29:43;95759.97;;;11.62;65.91
70127;BME280;57491;42.694;23.314;2023-02-28T08:32:10;95759.75;;;11.80;64.77
70127;BME280;57491;42.694;23.314;2023-02-28T08:34:38;95763.44;;;11.93;63.92
70127;BME280;57491;42.694;23.314;2023-02-28T08:37:06;95764.19;;;12.10;63.35
70127;BME280;57491;42.694;23.314;2023-02-28T08:39:34;95766.09;;;12.16;63.05
70127;BME280;57491;42.694;23.314;2023-02-28T08:42:01;95760.22;;;12.22;63.19
70127;BME280;57491;42.694;23.314;2023-02-28T08:44:29;95762.75;;;12.30;63.94
70127;BME280;57491;42.694;23.314;2023-02-28T08:46:56;95751.13;;;12.41;62.80
70127;BME280;57491;42.694;23.314;2023-02-28T08:49:23;95764.56;;;12.52;63.26
70127;BME280;57491;42.694;23.314;2023-02-28T08:51:50;95756.72;;;12.61;63.02
70127;BME280;57491;42.694;23.314;2023-02-28T08:54:18;95760.06;;;12.69;62.13
70127;BME280;57491;42.694;23.314;2023-02-28T08:56:45;95761.66;;;12.70;63.28
70127;BME280;57491;42.694;23.314;2023-02-28T08:59:13;95760.97;;;12.76;62.71
70127;BME280;57491;42.694;23.314;2023-02-28T09:01:41;95767.16;;;12.75;62.10
70127;BME280;57491;42.694;23.314;2023-02-28T09:04:09;95760.63;;;12.79;62.76
70127;BME280;57491;42.694;23.314;2023-02-28T09:06:37;95756.84;;;12.82;62.94
70127;BME280;57491;42.694;23.314;2023-02-28T09:09:04;95757.47;;;12.69;63.79
70127;BME280;57491;42.694;23.314;2023-02-28T09:11:33;95751.94;;;12.64;62.14
70127;BME280;57491;42.694;23.314;2023-02-28T09:14:01;95756.00;;;12.44;63.22
70127;BME280;57491;42.694;23.314;2023-02-28T09:16:29;95760.63;;;12.34;64.09
70127;BME280;57491;42.694;23.314;2023-02-28T09:18:57;95753.72;;;12.18;64.76
70127;BME280;57491;42.694;23.314;2023-02-28T09:21:24;95759.59;;;11.81;64.66
70127;BME280;57491;42.694;23.314;2023-02-28T09:23:52;95753.47;;;11.58;64.42
70127;BME280;57491;42.694;23.314;2023-02-28T09:26:20;95752.88;;;11.40;66.19
70127;BME280;57491;42.694;23.314;2023-02-28T09:28:49;95762.00;;;11.36;66.30
70127;BME280;57491;42.694;23.314;2023-02-28T09:31:18;95756.81;;;11.28;66.23
70127;BME280;57491;42.694;23.314;2023-02-28T09:33:47;95759.75;;;11.33;66.56
70127;BME280;57491;42.694;23.314;2023-02-28T09:36:16;95755.00;;;11.36;66.36
70127;BME280;57491;42.694;23.314;2023-02-28T09:38:43;95753.03;;;11.46;66.78
70127;BME280;57491;42.694;23.314;2023-02-28T09:41:14;95759.00;;;11.63;67.61
70127;BME280;57491;42.694;23.314;2023-02-28T09:43:44;95752.31;;;11.69;66.49
70127;BME280;57491;42.694;23.314;2023-02-28T09:46:25;95740.13;;;11.61;66.09
70127;BME280;57491;42.694;23.314;2023-02-28T09:48:54;95748.72;;;11.78;66.05
70127;BME280;57491;42.694;23.314;2023-02-28T09:51:50;95748.97;;;11.91;65.11
70127;BME280;57491;42.694;23.314;2023-02-28T09:54:19;95744.38;;;12.01;64.60
70127;BME280;57491;42.694;23.314;2023-02-28T09:56:50;95740.38;;;12.13;65.76
70127;BME280;57491;42.694;23.314;2023-02-28T09:59:33;95741.97;;;12.22;63.99
70127;BME280;57491;42.694;23.314;2023-02-28T10:02:18;95743.84;;;12.36;64.28
70127;BME280;57491;42.694;23.314;2023-02-28T10:04:51;95723.88;;;12.43;63.71
70127;BME280;57491;42.694;23.314;2023-02-28T10:07:39;95730.94;;;12.58;64.22
70127;BME280;57491;42.694;23.314;2023-02-28T10:10:19;95730.31;;;12.78;62.83
70127;BME280;57491;42.694;23.314;2023-02-28T10:12:51;95725.41;;;12.38;62.80
70127;BME280;57491;42.694;23.314;2023-02-28T10:15:22;95719.66;;;12.20;63.99
70127;BME280;57491;42.694;23.314;2023-02-28T10:17:54;95722.16;;;12.36;63.24
70127;BME280;57491;42.694;23.314;2023-02-28T10:20:24;95728.34;;;12.58;62.93
70127;BME280;57491;42.694;23.314;2023-02-28T10:23:02;95713.00;;;12.40;62.57
70127;BME280;57491;42.694;23.314;2023-02-28T10:25:35;95703.06;;;12.58;62.82
70127;BME280;57491;42.694;23.314;2023-02-28T10:28:09;95711.31;;;12.84;62.32
70127;BME280;57491;42.694;23.314;2023-02-28T10:30:53;95714.94;;;12.98;60.41
70127;BME280;57491;42.694;23.314;2023-02-28T10:33:51;95702.72;;;12.98;61.18
70127;BME280;57491;42.694;23.314;2023-02-28T10:36:24;95695.09;;;13.12;60.33
70127;BME280;57491;42.694;23.314;2023-02-28T10:38:57;95693.59;;;13.32;59.53
70127;BME280;57491;42.694;23.314;2023-02-28T10:41:29;95689.97;;;13.33;59.82
70127;BME280;57491;42.694;23.314;2023-02-28T10:44:22;95673.59;;;13.90;56.86
70127;BME280;57491;42.694;23.314;2023-02-28T10:46:54;95682.50;;;14.52;56.37
70127;BME280;57491;42.694;23.314;2023-02-28T10:49:29;95669.28;;;15.98;52.47
70127;BME280;57491;42.694;23.314;2023-02-28T10:52:01;95660.25;;;17.12;48.17
70127;BME280;57491;42.694;23.314;2023-02-28T10:54:33;95667.22;;;17.58;46.79
70127;BME280;57491;42.694;23.314;2023-02-28T10:57:20;95656.91;;;18.07;44.64
70127;BME280;57491;42.694;23.314;2023-02-28T11:00:05;95650.41;;;18.16;44.96
70127;BME280;57491;42.694;23.314;2023-02-28T11:02:35;95651.22;;;18.98;43.40
70127;BME280;57491;42.694;23.314;2023-02-28T11:05:29;95644.34;;;19.76;41.25
70127;BME280;57491;42.694;23.314;2023-02-28T11:08:05;95648.16;;;19.62;41.14
70127;BME280;57491;42.694;23.314;2023-02-28T11:10:39;95642.31;;;20.08;40.49
70127;BME280;57491;42.694;23.314;2023-02-28T11:13:06;95642.38;;;20.73;38.70
70127;BME280;57491;42.694;23.314;2023-02-28T11:15:34;95636.81;;;20.39;38.98
70127;BME280;57491;42.694;23.314;2023-02-28T11:18:21;95630.34;;;20.88;38.58
70127;BME280;57491;42.694;23.314;2023-02-28T11:20:51;95632.78;;;20.37;39.07
70127;BME280;57491;42.694;23.314;2023-02-28T11:23:19;95624.47;;;20.86;37.99
70127;BME280;57491;42.694;23.314;2023-02-28T11:25:51;95629.16;;;20.73;38.33
70127;BME280;57491;42.694;23.314;2023-02-28T11:28:27;95628.38;;;20.72;37.45
70127;BME280;57491;42.694;23.314;2023-02-28T11:31:04;95631.47;;;20.58;37.43
70127;BME280;57491;42.694;23.314;2023-02-28T11:33:37;95628.69;;;21.57;36.33
70127;BME280;57491;42.694;23.314;2023-02-28T11:36:12;95623.69;;;22.57;34.61
70127;BME280;57491;42.694;23.314;2023-02-28T11:38:40;95619.56;;;22.95;33.55
70127;BME280;57491;42.694;23.314;2023-02-28T11:41:19;95616.50;;;22.86;33.33
70127;BME280;57491;42.694;23.314;2023-02-28T11:44:04;95617.00;;;21.07;35.68
70127;BME280;57491;42.694;23.314;2023-02-28T11:46:39;95618.84;;;20.94;36.41
70127;BME280;57491;42.694;23.314;2023-02-28T11:49:22;95613.69;;;21.23;35.98
70127;BME280;57491;42.694;23.314;2023-02-28T11:51:59;95605.50;;;21.76;35.31
70127;BME280;57491;42.694;23.314;2023-02-28T11:54:41;95616.28;;;22.26;34.53
70127;BME280;57491;42.694;23.314;2023-02-28T11:57:32;95608.91;;;22.00;34.92
70127;BME280;57491;42.694;23.314;2023-02-28T12:00:08;95611.03;;;21.11;36.09
70127;BME280;57491;42.694;23.314;2023-02-28T12:02:51;95620.00;;;20.87;36.45
70127;BME280;57491;42.694;23.314;2023-02-28T12:05:30;95611.72;;;20.83;36.52
70127;BME280;57491;42.694;23.314;2023-02-28T12:08:09;95614.06;;;20.38;37.28
70127;BME280;57491;42.694;23.314;2023-02-28T12:10:51;95595.28;;;20.81;36.59
70127;BME280;57491;42.694;23.314;2023-02-28T12:13:29;95613.75;;;20.17;37.54
70127;BME280;57491;42.694;23.314;2023-02-28T12:16:26;95613.53;;;19.88;38.16
70127;BME280;57491;42.694;23.314;2023-02-28T12:19:07;95604.66;;;19.53;38.72
70127;BME280;57491;42.694;23.314;2023-02-28T12:24:50;95601.53;;;19.74;38.48
70127;BME280;57491;42.694;23.314;2023-02-28T12:27:23;95602.06;;;19.65;38.54
70127;BME280;57491;42.694;23.314;2023-02-28T12:29:57;95606.63;;;19.87;37.82
70127;BME280;57491;42.694;23.314;2023-02-28T12:32:29;95619.63;;;19.34;38.89
70127;BME280;57491;42.694;23.314;2023-02-28T12:35:02;95597.56;;;18.43;40.45
70127;BME280;57491;42.694;23.314;2023-02-28T12:37:33;95592.94;;;17.75;43.08
70127;BME280;57491;42.694;23.314;2023-02-28T12:40:11;95592.16;;;18.06;42.35
70127;BME280;57491;42.694;23.314;2023-02-28T12:42:40;95597.03;;;18.34;42.01
70127;BME280;57491;42.694;23.314;2023-02-28T12:45:13;95604.13;;;18.02;42.19
70127;BME280;57491;42.694;23.314;2023-02-28T12:47:46;95600.66;;;17.13;44.08
70127;BME280;57491;42.694;23.314;2023-02-28T12:50:16;95604.75;;;16.49;46.05
70127;BME280;57491;42.694;23.314;2023-02-28T12:52:50;95593.78;;;15.87;47.92
70127;BME280;57491;42.694;23.314;2023-02-28T12:55:23;95604.38;;;15.52;48.17
70127;BME280;57491;42.694;23.314;2023-02-28T12:58:00;95594.72;;;15.18;49.48
70127;BME280;57491;42.694;23.314;2023-02-28T13:00:34;95607.00;;;15.52;49.18
70127;BME280;57491;42.694;23.314;2023-02-28T13:03:29;95601.66;;;15.87;47.93
70127;BME280;57491;42.694;23.314;2023-02-28T13:06:10;95586.97;;;16.05;47.57
70127;BME280;57491;42.694;23.314;2023-02-28T13:09:01;95590.06;;;15.55;48.64
70127;BME280;57491;42.694;23.314;2023-02-28T13:11:30;95592.72;;;15.61;48.53
70127;BME280;57491;42.694;23.314;2023-02-28T13:14:00;95595.06;;;15.50;48.90
70127;BME280;57491;42.694;23.314;2023-02-28T13:16:48;95596.41;;;15.87;48.04
70127;BME280;57491;42.694;23.314;2023-02-28T13:19:18;95609.66;;;15.66;48.73
70127;BME280;57491;42.694;23.314;2023-02-28T13:21:47;95593.38;;;15.36;49.14
70127;BME280;57491;42.694;23.314;2023-02-28T13:24:40;95589.59;;;14.97;50.32